Gil Vicente — CSKG — position and weather

sailwx.info

Track history (hours):
 
Tides and Currents Weather Stations Pressure Air Temp Water Temp Dewpoint Dewpoint Depression Visibility Wind Speed Wind Dir Waves Ship Positions

Gil Vicente

Last reported at 2016-May-30 06:33 UTC. Time now 2016-May-30 06:55 UTC.
Position N 38°40' W 009°07'.

Length 49 m.

Type: Passenger vessel. MMSI: 263701390.

Date/timePositionNaut miles runAvg speedWind from/ knotsBaromVisibWave heightAir tempDewpointWater temp
2016-May-30 06:33N 38°40' W 009°07'  
2016-May-27 20:11N 38°39' W 009°05'3 5.5
2016-May-27 19:34N 38°42' W 009°08'2 1.9
2016-May-27 18:33N 38°40' W 009°07'3 2.6
2016-May-27 17:33N 38°42' W 009°08'0 0.1
2016-May-27 16:33N 38°42' W 009°08'1 0.2
2016-May-27 09:33N 38°41' W 009°08'3 3.4
2016-May-27 08:33N 38°39' W 009°05'2 1.5
2016-May-27 07:33N 38°40' W 009°06'3 2.6
2016-May-27 06:33N 38°42' W 009°08'0 0.3
2016-May-27 05:34N 38°42' W 009°08'0 0.0
2016-May-27 04:33N 38°42' W 009°08'4 4.1
2016-May-27 03:33N 38°39' W 009°05'0 0.0
2016-May-27 02:33N 38°39' W 009°05'0 0.0
2016-May-27 01:33N 38°39' W 009°05'0 0.3
2016-May-27 00:33N 38°39' W 009°05'0 0.2
2016-May-26 23:33N 38°39' W 009°05'0 0.2
2016-May-26 22:33N 38°39' W 009°05'1 1.3
2016-May-26 21:33N 38°40' W 009°06'0 0.2
2016-May-26 20:33N 38°40' W 009°07'0 0.0
2016-May-26 19:33N 38°40' W 009°07'1 0.8
2016-May-26 18:34N 38°40' W 009°08'0 0.5
2016-May-26 17:33N 38°41' W 009°08'0 0.1
2016-May-26 16:34N 38°41' W 009°07'0 0.1
2016-May-26 15:33N 38°41' W 009°08'0 0.4
2016-May-26 14:33N 38°41' W 009°08'3 3.1
2016-May-26 13:33N 38°39' W 009°05'0 0.0
2016-May-26 12:33N 38°39' W 009°05'1 1.2
2016-May-26 11:33N 38°40' W 009°06'0 0.1
2016-May-26 10:33N 38°40' W 009°06'0 0.2
2016-May-26 09:33N 38°40' W 009°06'1 0.5
2016-May-26 08:33N 38°40' W 009°06'1 0.5
2016-May-26 07:33N 38°40' W 009°06'0 0.2
2016-May-26 06:33N 38°40' W 009°06'2 1.5
2016-May-26 05:33N 38°41' W 009°08'1 1.1
2016-May-26 04:33N 38°42' W 009°08'4 1.1
2016-May-26 01:18N 38°39' W 009°05'0 0.4
2016-May-26 00:33N 38°39' W 009°05'0 0.0
2016-May-25 23:33N 38°39' W 009°05'0 0.1
2016-May-25 22:33N 38°39' W 009°05'0 0.3
2016-May-25 21:33N 38°39' W 009°05'1 1.0
2016-May-25 20:33N 38°40' W 009°06'2 1.5
2016-May-25 19:33N 38°39' W 009°05'0 0.0
2016-May-25 18:33N 38°39' W 009°05'1 1.3
2016-May-25 17:33N 38°40' W 009°06'3 2.6
2016-May-25 16:33N 38°42' W 009°08'4 0.5
2016-May-25 09:33N 38°39' W 009°05'4 4.0
2016-May-25 08:33N 38°42' W 009°08'0 0.1
2016-May-25 07:33N 38°42' W 009°08'3 2.8
2016-May-25 06:34N 38°40' W 009°07'1 0.1
2016-May-24 08:33N 38°39' W 009°05'0 0.1
2016-May-24 07:33N 38°39' W 009°05'0 0.0
2016-May-24 06:33N 38°39' W 009°05'0 0.0
2016-May-24 05:33N 38°39' W 009°05'0 0.0
2016-May-23 20:12N 38°39' W 009°05'4 5.4
2016-May-23 19:33N 38°42' W 009°08'2 2.4
2016-May-23 18:33N 38°40' W 009°06'3 2.9
2016-May-23 17:33N 38°42' W 009°08'0 0.1
2016-May-23 16:33N 38°42' W 009°08'1 0.6
2016-May-23 15:33N 38°42' W 009°08'4 3.6
2016-May-23 14:34N 38°39' W 009°05'1 1.2
2016-May-23 13:33N 38°40' W 009°06'0 0.2
2016-May-23 12:33N 38°40' W 009°06'1 1.2
2016-May-23 11:32N 38°39' W 009°05'0 0.0
2016-May-23 10:33N 38°39' W 009°05'3 2.9
2016-May-23 09:33N 38°41' W 009°08'3 2.9
2016-May-23 08:33N 38°39' W 009°05'1 1.2
2016-May-23 07:34N 38°40' W 009°06'3 2.8
2016-May-23 06:33N 38°42' W 009°08'0 0.3
2016-May-23 05:33N 38°42' W 009°08'0 0.0
2016-May-23 04:33N 38°42' W 009°08'4 4.1
2016-May-23 03:33N 38°39' W 009°05'0 0.0
2016-May-23 02:34N 38°39' W 009°05'0 0.0
2016-May-23 01:33N 38°39' W 009°05'0 0.4
2016-May-23 00:33N 38°39' W 009°05'0 0.2
2016-May-22 23:33N 38°39' W 009°05'0 0.2
2016-May-22 22:34N 38°39' W 009°05'1 1.2
2016-May-22 21:34N 38°40' W 009°06'0 0.1
2016-May-22 20:33N 38°40' W 009°06'0 0.3
2016-May-22 19:34N 38°40' W 009°07'1 1.0
2016-May-22 18:33N 38°40' W 009°08'1 0.5
2016-May-22 17:33N 38°41' W 009°08'0 0.2
2016-May-22 16:33N 38°41' W 009°08'0 0.5
2016-May-22 15:33N 38°41' W 009°08'1 0.8
2016-May-22 14:33N 38°42' W 009°08'3 3.4
2016-May-22 13:33N 38°39' W 009°05'0 0.0
2016-May-22 12:33N 38°39' W 009°05'2 1.5
2016-May-22 11:33N 38°40' W 009°06'1 1.4
2016-May-22 10:33N 38°39' W 009°05'0 0.0
2016-May-20 09:25N 38°39' W 009°05'0 0.2
2016-May-20 08:33N 38°39' W 009°05'0 0.1
2016-May-20 07:33N 38°39' W 009°05'1 1.1
2016-May-20 06:33N 38°39' W 009°06'  
Track history (hours):
 
Tides and Currents Weather Stations Pressure Air Temp Water Temp Dewpoint Dewpoint Depression Visibility Wind Speed Wind Dir Waves Ship Positions

Gil Vicente

Last reported at 2016-May-30 06:33 UTC. Time now 2016-May-30 06:55 UTC.
Position N 38°40' W 009°07'.

Length 49 m.

Type: Passenger vessel. MMSI: 263701390.

Date/timePositionNaut miles runAvg speedWind from/ knotsBaromVisibWave heightAir tempDewpointWater temp
2016-May-30 06:33N 38°40' W 009°07'  
2016-May-27 20:11N 38°39' W 009°05'3 5.5
2016-May-27 19:34N 38°42' W 009°08'2 1.9
2016-May-27 18:33N 38°40' W 009°07'3 2.6
2016-May-27 17:33N 38°42' W 009°08'0 0.1
2016-May-27 16:33N 38°42' W 009°08'1 0.2
2016-May-27 09:33N 38°41' W 009°08'3 3.4
2016-May-27 08:33N 38°39' W 009°05'2 1.5
2016-May-27 07:33N 38°40' W 009°06'3 2.6
2016-May-27 06:33N 38°42' W 009°08'0 0.3
2016-May-27 05:34N 38°42' W 009°08'0 0.0
2016-May-27 04:33N 38°42' W 009°08'4 4.1
2016-May-27 03:33N 38°39' W 009°05'0 0.0
2016-May-27 02:33N 38°39' W 009°05'0 0.0
2016-May-27 01:33N 38°39' W 009°05'0 0.3
2016-May-27 00:33N 38°39' W 009°05'0 0.2
2016-May-26 23:33N 38°39' W 009°05'0 0.2
2016-May-26 22:33N 38°39' W 009°05'1 1.3
2016-May-26 21:33N 38°40' W 009°06'0 0.2
2016-May-26 20:33N 38°40' W 009°07'0 0.0
2016-May-26 19:33N 38°40' W 009°07'1 0.8
2016-May-26 18:34N 38°40' W 009°08'0 0.5
2016-May-26 17:33N 38°41' W 009°08'0 0.1
2016-May-26 16:34N 38°41' W 009°07'0 0.1
2016-May-26 15:33N 38°41' W 009°08'0 0.4
2016-May-26 14:33N 38°41' W 009°08'3 3.1
2016-May-26 13:33N 38°39' W 009°05'0 0.0
2016-May-26 12:33N 38°39' W 009°05'1 1.2
2016-May-26 11:33N 38°40' W 009°06'0 0.1
2016-May-26 10:33N 38°40' W 009°06'0 0.2
2016-May-26 09:33N 38°40' W 009°06'1 0.5
2016-May-26 08:33N 38°40' W 009°06'1 0.5
2016-May-26 07:33N 38°40' W 009°06'0 0.2
2016-May-26 06:33N 38°40' W 009°06'2 1.5
2016-May-26 05:33N 38°41' W 009°08'1 1.1
2016-May-26 04:33N 38°42' W 009°08'4 1.1
2016-May-26 01:18N 38°39' W 009°05'0 0.4
2016-May-26 00:33N 38°39' W 009°05'0 0.0
2016-May-25 23:33N 38°39' W 009°05'0 0.1
2016-May-25 22:33N 38°39' W 009°05'0 0.3
2016-May-25 21:33N 38°39' W 009°05'1 1.0
2016-May-25 20:33N 38°40' W 009°06'2 1.5
2016-May-25 19:33N 38°39' W 009°05'0 0.0
2016-May-25 18:33N 38°39' W 009°05'1 1.3
2016-May-25 17:33N 38°40' W 009°06'3 2.6
2016-May-25 16:33N 38°42' W 009°08'4 0.5
2016-May-25 09:33N 38°39' W 009°05'4 4.0
2016-May-25 08:33N 38°42' W 009°08'0 0.1
2016-May-25 07:33N 38°42' W 009°08'3 2.8
2016-May-25 06:34N 38°40' W 009°07'1 0.1
2016-May-24 08:33N 38°39' W 009°05'0 0.1
2016-May-24 07:33N 38°39' W 009°05'0 0.0
2016-May-24 06:33N 38°39' W 009°05'0 0.0
2016-May-24 05:33N 38°39' W 009°05'0 0.0
2016-May-23 20:12N 38°39' W 009°05'4 5.4
2016-May-23 19:33N 38°42' W 009°08'2 2.4
2016-May-23 18:33N 38°40' W 009°06'3 2.9
2016-May-23 17:33N 38°42' W 009°08'0 0.1
2016-May-23 16:33N 38°42' W 009°08'1 0.6
2016-May-23 15:33N 38°42' W 009°08'4 3.6
2016-May-23 14:34N 38°39' W 009°05'1 1.2
2016-May-23 13:33N 38°40' W 009°06'0 0.2
2016-May-23 12:33N 38°40' W 009°06'1 1.2
2016-May-23 11:32N 38°39' W 009°05'0 0.0
2016-May-23 10:33N 38°39' W 009°05'3 2.9
2016-May-23 09:33N 38°41' W 009°08'3 2.9
2016-May-23 08:33N 38°39' W 009°05'1 1.2
2016-May-23 07:34N 38°40' W 009°06'3 2.8
2016-May-23 06:33N 38°42' W 009°08'0 0.3
2016-May-23 05:33N 38°42' W 009°08'0 0.0
2016-May-23 04:33N 38°42' W 009°08'4 4.1
2016-May-23 03:33N 38°39' W 009°05'0 0.0
2016-May-23 02:34N 38°39' W 009°05'0 0.0
2016-May-23 01:33N 38°39' W 009°05'0 0.4
2016-May-23 00:33N 38°39' W 009°05'0 0.2
2016-May-22 23:33N 38°39' W 009°05'0 0.2
2016-May-22 22:34N 38°39' W 009°05'1 1.2
2016-May-22 21:34N 38°40' W 009°06'0 0.1
2016-May-22 20:33N 38°40' W 009°06'0 0.3
2016-May-22 19:34N 38°40' W 009°07'1 1.0
2016-May-22 18:33N 38°40' W 009°08'1 0.5
2016-May-22 17:33N 38°41' W 009°08'0 0.2
2016-May-22 16:33N 38°41' W 009°08'0 0.5
2016-May-22 15:33N 38°41' W 009°08'1 0.8
2016-May-22 14:33N 38°42' W 009°08'3 3.4
2016-May-22 13:33N 38°39' W 009°05'0 0.0
2016-May-22 12:33N 38°39' W 009°05'2 1.5
2016-May-22 11:33N 38°40' W 009°06'1 1.4
2016-May-22 10:33N 38°39' W 009°05'0 0.0
2016-May-20 09:25N 38°39' W 009°05'0 0.2
2016-May-20 08:33N 38°39' W 009°05'0 0.1
2016-May-20 07:33N 38°39' W 009°05'1 1.1
2016-May-20 06:33N 38°39' W 009°06'  

Dump ship's entire track history